Time;durP1;ratioP1;P1;durP2;ratioP2;P2;SDS_P1;SDS_P2;PMS_P1;PMS_P2;Temp;Humidity;BMP_temperature;BMP_pressure;BME280_temperature;BME280_humidity;BME280_pressure;Samples;Min_cycle;Max_cycle;Signal;HPM_P1;HPM_P2
2021/03/19 00:01:24;;;;;;;26.30;12.98;;;;;;;1.67;83.69;100838.66;5052222;28;20063;-68
2021/03/19 00:03:49;;;;;;;48.55;16.15;;;;;;;1.64;84.12;100833.34;5052151;28;20033;-68
2021/03/19 00:06:15;;;;;;;46.30;15.00;;;;;;;1.72;83.70;100836.22;5051866;28;20395;-68
2021/03/19 00:08:40;;;;;;;24.60;10.38;;;;;;;1.72;83.80;100831.91;5052167;28;20434;-68
2021/03/19 00:11:06;;;;;;;39.85;11.20;;;;;;;1.58;83.29;100848.75;5051997;28;20044;-68
2021/03/19 00:13:31;;;;;;;31.40;9.68;;;;;;;1.49;83.93;100838.03;5052095;28;20096;-68
2021/03/19 00:15:56;;;;;;;39.72;12.82;;;;;;;1.48;84.23;100838.88;5051661;28;20507;-68
2021/03/19 00:18:22;;;;;;;48.30;12.25;;;;;;;1.57;83.46;100833.09;5052050;28;20044;-68
2021/03/19 00:20:48;;;;;;;27.58;11.00;;;;;;;1.59;84.03;100834.03;5051656;28;20052;-68
2021/03/19 00:23:14;;;;;;;44.20;10.98;;;;;;;1.60;83.78;100834.09;5051377;28;20043;-68
2021/03/19 00:25:40;;;;;;;45.53;13.73;;;;;;;1.64;84.22;100838.56;5051507;28;20040;-69
2021/03/19 00:28:06;;;;;;;25.30;11.15;;;;;;;1.75;84.31;100837.22;5051838;28;20103;-69
2021/03/19 00:30:33;;;;;;;23.27;11.48;;;;;;;1.80;84.25;100839.09;5051623;28;20091;-68
2021/03/19 00:32:59;;;;;;;25.73;10.73;;;;;;;1.77;84.11;100839.88;5042274;28;20486;-68
2021/03/19 00:35:25;;;;;;;32.92;11.50;;;;;;;1.78;83.39;100835.56;5051265;28;20062;-68
2021/03/19 00:37:50;;;;;;;83.32;17.08;;;;;;;1.77;83.79;100836.41;5051650;28;20116;-68
2021/03/19 00:40:16;;;;;;;17.50;11.05;;;;;;;1.78;83.99;100833.81;5051437;28;20051;-69
2021/03/19 00:42:42;;;;;;;28.02;11.52;;;;;;;1.87;83.39;100825.47;5051501;28;20033;-68
2021/03/19 00:45:10;;;;;;;13.82;9.63;;;;;;;1.89;83.90;100829.88;5051176;28;20032;-68
2021/03/19 00:47:35;;;;;;;31.98;10.93;;;;;;;1.93;83.55;100838.69;5051504;28;20491;-69
2021/03/19 00:50:00;;;;;;;20.77;10.40;;;;;;;1.98;83.47;100826.69;5051624;28;20033;-69
2021/03/19 00:52:26;;;;;;;33.55;12.07;;;;;;;1.97;83.01;100831.03;5051444;28;20032;-68
2021/03/19 00:54:51;;;;;;;19.02;9.73;;;;;;;1.97;83.14;100820.63;5051500;28;20040;-68
2021/03/19 00:57:17;;;;;;;15.38;9.45;;;;;;;1.98;82.85;100831.91;5051270;28;20526;-69
2021/03/19 00:59:42;;;;;;;23.20;11.75;;;;;;;2.04;83.33;100821.69;5051582;28;20495;-69
2021/03/19 01:02:08;;;;;;;13.88;9.50;;;;;;;2.07;83.02;100827.03;5051302;28;20558;-68
2021/03/19 01:04:34;;;;;;;27.17;10.75;;;;;;;2.01;82.82;100832.00;5051068;28;20037;-68
2021/03/19 01:06:59;;;;;;;15.43;9.98;;;;;;;2.00;83.43;100829.38;5051049;28;20128;-68
2021/03/19 01:09:24;;;;;;;25.15;11.50;;;;;;;2.03;83.04;100827.75;5058202;28;20052;-69
2021/03/19 01:11:50;;;;;;;17.08;10.88;;;;;;;2.06;83.34;100830.44;5051186;28;20025;-68
2021/03/19 01:14:15;;;;;;;14.02;9.40;;;;;;;2.09;82.37;100820.13;5051168;28;20505;-68
2021/03/19 01:16:42;;;;;;;18.35;10.00;;;;;;;2.07;82.38;100824.41;5050886;28;20044;-68
2021/03/19 01:19:07;;;;;;;14.60;8.65;;;;;;;2.05;82.72;100831.28;5051107;28;20504;-69
2021/03/19 01:21:33;;;;;;;20.98;8.93;;;;;;;2.04;82.36;100819.09;5051044;28;20073;-68
2021/03/19 01:23:58;;;;;;;14.63;9.20;;;;;;;1.99;82.18;100823.25;5050984;28;20033;-68
2021/03/19 01:26:23;;;;;;;14.70;9.77;;;;;;;2.02;82.81;100828.59;5050836;28;20446;-68
2021/03/19 01:28:49;;;;;;;9.35;6.95;;;;;;;2.06;82.45;100835.66;5051047;28;20029;-68
2021/03/19 01:31:15;;;;;;;12.60;9.07;;;;;;;1.94;82.15;100833.53;5049701;28;20148;-68
2021/03/19 01:33:41;;;;;;;11.73;8.40;;;;;;;1.95;83.40;100834.41;5051129;28;20427;-68
2021/03/19 01:36:07;;;;;;;11.45;8.07;;;;;;;1.91;82.54;100828.22;5053985;28;20056;-68
2021/03/19 01:38:38;;;;;;;9.73;6.68;;;;;;;1.92;83.07;100839.53;5055316;28;20258;-69
2021/03/19 01:41:04;;;;;;;9.82;6.93;;;;;;;1.89;82.31;100835.09;5039357;28;20064;-68
2021/03/19 01:43:40;;;;;;;9.07;6.63;;;;;;;1.87;82.65;100835.88;5058313;28;20078;-68
2021/03/19 01:46:43;;;;;;;9.45;7.05;;;;;;;1.86;82.83;100835.00;5039803;28;20119;-69
2021/03/19 01:49:45;;;;;;;9.93;7.70;;;;;;;1.90;82.88;100833.38;5091202;23;20048;-71
2021/03/19 01:52:48;;;;;;;10.68;7.32;;;;;;;1.96;82.11;100830.97;5042997;28;20045;-71
2021/03/19 01:55:32;;;;;;;;;;;;;;;1.96;83.42;100837.09;5043176;28;20054;-71
2021/03/19 01:58:35;;;;;;;10.98;7.40;;;;;;;2.10;82.63;100836.66;5045952;28;19916;-71
2021/03/19 02:01:38;;;;;;;11.05;7.20;;;;;;;2.10;82.05;100836.66;5042768;28;20048;-71
2021/03/19 02:04:40;;;;;;;9.95;6.93;;;;;;;2.04;82.72;100844.25;5042718;28;20052;-71
2021/03/19 02:07:43;;;;;;;9.85;7.30;;;;;;;2.10;82.77;100842.75;5042397;28;20021;-71
2021/03/19 02:10:46;;;;;;;10.93;7.80;;;;;;;2.21;82.34;100852.63;5042610;28;20033;-71
2021/03/19 02:13:48;;;;;;;8.30;6.38;;;;;;;2.11;82.07;100851.44;5042642;28;20029;-71
2021/03/19 02:16:51;;;;;;;11.25;8.20;;;;;;;1.98;82.04;100856.22;5042347;28;20036;-71
2021/03/19 02:19:54;;;;;;;11.30;8.55;;;;;;;1.96;82.41;100863.13;5042459;28;20472;-71
2021/03/19 02:22:57;;;;;;;11.55;8.68;;;;;;;1.85;82.70;100863.56;5042328;28;20488;-71
2021/03/19 02:25:59;;;;;;;12.13;8.25;;;;;;;1.87;82.27;100856.69;5042070;28;20412;-71
2021/03/19 02:29:02;;;;;;;11.52;7.90;;;;;;;1.77;83.21;100865.03;5041058;28;20151;-71
2021/03/19 02:32:00;;;;;;;17.35;10.82;;;;;;;1.67;83.47;100864.69;5042189;28;20045;-71
2021/03/19 02:34:30;;;;;;;14.55;10.65;;;;;;;1.75;83.91;100870.16;5042211;28;20129;-71
2021/03/19 02:36:56;;;;;;;15.57;11.18;;;;;;;1.85;84.02;100869.66;5044835;28;20087;-70
2021/03/19 02:39:22;;;;;;;17.05;12.52;;;;;;;1.96;83.51;100868.31;5045331;28;20036;-71
2021/03/19 02:41:47;;;;;;;15.57;10.48;;;;;;;1.93;83.05;100872.50;5043665;28;20037;-71
2021/03/19 02:44:13;;;;;;;14.38;9.68;;;;;;;1.80;83.14;100870.31;5042043;28;20044;-71
2021/03/19 02:46:38;;;;;;;17.92;12.00;;;;;;;1.75;84.11;100871.03;5041587;28;20033;-72
2021/03/19 02:49:04;;;;;;;17.30;12.18;;;;;;;1.77;83.69;100865.03;5045159;28;20040;-72
2021/03/19 02:51:29;;;;;;;18.13;13.38;;;;;;;1.75;83.72;100865.84;5045315;28;20033;-71
2021/03/19 02:53:55;;;;;;;16.80;12.35;;;;;;;1.83;83.79;100860.91;5042364;28;20416;-71
2021/03/19 02:56:20;;;;;;;17.95;12.68;;;;;;;1.96;84.16;100862.19;5041524;28;20043;-71
2021/03/19 02:58:46;;;;;;;16.73;13.05;;;;;;;2.04;83.50;100854.66;5043073;28;20100;-72
2021/03/19 03:01:11;;;;;;;17.58;12.57;;;;;;;2.11;83.27;100851.44;5044931;28;20044;-71
2021/03/19 03:03:36;;;;;;;19.10;12.57;;;;;;;2.13;83.06;100854.97;5044679;28;20029;-72
2021/03/19 03:06:03;;;;;;;16.48;12.15;;;;;;;2.21;83.05;100858.72;5041282;28;20512;-71
2021/03/19 03:08:30;;;;;;;17.20;12.30;;;;;;;2.24;82.75;100851.00;5041417;28;20550;-71
2021/03/19 03:10:56;;;;;;;16.63;12.05;;;;;;;2.09;82.33;100864.38;5044249;28;20561;-71
2021/03/19 03:13:22;;;;;;;16.92;12.20;;;;;;;1.95;82.54;100860.44;5044902;28;20692;-71
2021/03/19 03:15:47;;;;;;;18.92;12.45;;;;;;;1.94;82.43;100869.09;5042831;28;20037;-72
2021/03/19 03:18:14;;;;;;;19.70;13.55;;;;;;;1.87;83.11;100864.50;5041300;28;20542;-71
2021/03/19 03:20:47;;;;;;;20.52;14.38;;;;;;;1.79;83.17;100869.44;5041623;28;20049;-71
2021/03/19 03:23:14;;;;;;;18.23;13.35;;;;;;;1.86;83.61;100873.13;5044645;28;20033;-72
2021/03/19 03:25:40;;;;;;;19.27;13.07;;;;;;;1.93;83.38;100872.50;5043718;28;20036;-71
2021/03/19 03:28:06;;;;;;;18.65;13.68;;;;;;;1.94;83.21;100879.50;5041106;28;20044;-71
2021/03/19 03:30:38;;;;;;;18.23;12.73;;;;;;;1.96;82.77;100876.13;5035941;28;20037;-71
2021/03/19 03:33:05;;;;;;;17.10;12.30;;;;;;;2.03;82.66;100884.13;5041201;28;20087;-71
2021/03/19 03:35:30;;;;;;;19.58;14.38;;;;;;;2.10;83.45;100881.78;5043535;28;20033;-71
2021/03/19 03:37:56;;;;;;;20.90;14.88;;;;;;;2.09;82.89;100874.78;5041323;28;20488;-71
2021/03/19 03:40:35;;;;;;;20.65;14.07;;;;;;;2.12;82.83;100876.63;5040828;28;20435;-71
2021/03/19 03:43:02;;;;;;;21.55;14.13;;;;;;;2.09;82.40;100874.78;5040912;28;20406;-72
2021/03/19 03:45:27;;;;;;;19.75;14.07;;;;;;;2.05;82.32;100878.16;5040624;28;20060;-71
2021/03/19 03:47:53;;;;;;;17.85;11.80;;;;;;;2.00;82.46;100882.31;5043099;28;20068;-71
2021/03/19 03:50:24;;;;;;;21.60;15.13;;;;;;;1.83;82.15;100880.84;5044073;28;20036;-71
2021/03/19 03:52:49;;;;;;;21.02;14.57;;;;;;;1.75;83.09;100878.84;5042126;28;20033;-71
2021/03/19 03:55:15;;;;;;;19.67;13.90;;;;;;;1.70;83.58;100875.22;5040445;28;20044;-71
2021/03/19 03:57:40;;;;;;;20.35;13.23;;;;;;;1.68;83.43;100876.88;5040255;28;20054;-71
2021/03/19 04:00:10;;;;;;;20.52;15.30;;;;;;;1.67;83.49;100879.41;5043841;28;20033;-72
2021/03/19 04:02:36;;;;;;;22.40;14.23;;;;;;;1.70;83.69;100870.03;5043751;28;20388;-71
2021/03/19 04:05:05;;;;;;;22.17;15.70;;;;;;;1.74;83.10;100882.28;5040213;28;20076;-71
2021/03/19 04:07:30;;;;;;;20.55;14.80;;;;;;;1.77;83.49;100871.09;5040201;28;20033;-71
2021/03/19 04:09:56;;;;;;;21.08;14.63;;;;;;;1.73;83.00;100872.72;5043152;28;20613;-71
2021/03/19 04:12:22;;;;;;;21.33;15.65;;;;;;;1.70;82.90;100869.09;5043729;28;20041;-71
2021/03/19 04:14:47;;;;;;;23.48;16.27;;;;;;;1.62;83.34;100874.03;5042125;28;20029;-71
2021/03/19 04:17:28;;;;;;;21.02;14.48;;;;;;;1.62;82.45;100871.44;5051538;28;20514;-71
2021/03/19 04:19:55;;;;;;;19.87;13.83;;;;;;;1.62;83.14;100873.16;5052653;28;20033;-71
2021/03/19 04:22:21;;;;;;;24.13;16.60;;;;;;;1.51;82.92;100878.88;5070072;28;20032;-72
2021/03/19 04:24:48;;;;;;;24.95;17.83;;;;;;;1.47;83.17;100876.13;5045466;28;20130;-71
2021/03/19 04:27:18;;;;;;;27.50;19.05;;;;;;;1.46;82.98;100885.63;5043089;28;20094;-72
2021/03/19 04:29:45;;;;;;;23.98;16.83;;;;;;;1.53;83.60;100886.75;5040997;28;20112;-71
2021/03/19 04:32:10;;;;;;;30.70;18.60;;;;;;;1.66;83.11;100888.94;5040269;28;20620;-72
2021/03/19 04:34:36;;;;;;;25.17;18.23;;;;;;;1.60;83.33;100886.13;5039907;28;20065;-71
2021/03/19 04:37:02;;;;;;;24.08;17.80;;;;;;;1.61;83.83;100890.50;5043064;28;20032;-71
2021/03/19 04:39:31;;;;;;;27.92;18.92;;;;;;;1.59;83.35;100893.88;5043146;28;20476;-71
2021/03/19 04:41:59;;;;;;;28.58;19.15;;;;;;;1.66;83.32;100893.28;5039225;28;20033;-71
2021/03/19 04:44:28;;;;;;;24.85;16.95;;;;;;;1.69;82.96;100904.66;5051264;28;20032;-71
2021/03/19 04:46:53;;;;;;;26.27;16.75;;;;;;;1.76;83.29;100892.78;5042962;28;20440;-72
2021/03/19 04:49:20;;;;;;;23.65;16.13;;;;;;;1.77;82.30;100907.53;5042673;28;20139;-71
2021/03/19 04:51:45;;;;;;;30.15;19.58;;;;;;;1.74;82.31;100897.03;5041727;28;20491;-71
2021/03/19 04:54:11;;;;;;;27.10;17.08;;;;;;;1.71;82.26;100908.22;5039717;28;20029;-71
2021/03/19 04:56:37;;;;;;;32.55;19.05;;;;;;;1.69;82.81;100904.66;5039356;28;20419;-72
2021/03/19 04:59:04;;;;;;;28.17;18.45;;;;;;;1.67;82.21;100908.91;5042896;28;20060;-71
2021/03/19 05:01:29;;;;;;;25.70;17.17;;;;;;;1.69;82.47;100915.06;5042906;28;20131;-71
2021/03/19 05:03:54;;;;;;;28.25;18.15;;;;;;;1.69;82.69;100909.00;5040210;28;20149;-72
2021/03/19 05:06:20;;;;;;;29.65;18.08;;;;;;;1.74;81.96;100912.63;5039451;28;20044;-71
2021/03/19 05:08:46;;;;;;;26.92;16.15;;;;;;;1.78;82.06;100918.81;5040611;28;20045;-72
2021/03/19 05:11:13;;;;;;;28.33;17.95;;;;;;;1.78;82.63;100918.81;5042931;28;20037;-71
2021/03/19 05:13:40;;;;;;;27.50;16.85;;;;;;;1.78;82.79;100924.03;5042328;28;20476;-72
2021/03/19 05:16:05;;;;;;;27.10;16.85;;;;;;;1.84;82.63;100924.28;5039186;28;20041;-74
2021/03/19 05:18:30;;;;;;;24.97;16.60;;;;;;;1.96;82.20;100920.38;5039201;28;20044;-71
2021/03/19 05:20:56;;;;;;;24.35;15.82;;;;;;;2.01;81.71;100928.31;5041985;28;20039;-70
2021/03/19 05:23:28;;;;;;;27.63;17.17;;;;;;;2.00;81.61;100926.56;5042970;28;20036;-71
2021/03/19 05:25:53;;;;;;;29.80;16.17;;;;;;;2.03;80.94;100933.59;5040088;28;20098;-72
2021/03/19 05:28:19;;;;;;;32.08;17.13;;;;;;;1.95;81.53;100930.72;5039343;28;20049;-71
2021/03/19 05:30:46;;;;;;;33.10;16.30;;;;;;;1.83;81.11;100941.56;5040451;28;20044;-71
2021/03/19 05:33:12;;;;;;;31.38;18.98;;;;;;;1.80;81.11;100941.47;5042579;28;20049;-71
2021/03/19 05:35:38;;;;;;;36.97;20.25;;;;;;;1.72;81.93;100942.91;5042029;28;20041;-72
2021/03/19 05:38:04;;;;;;;35.28;20.35;;;;;;;1.80;81.61;100943.19;5033026;28;20037;-71
2021/03/19 05:40:37;;;;;;;35.95;18.65;;;;;;;1.81;81.34;100947.56;5038261;28;20150;-72
2021/03/19 05:43:21;;;;;;;34.08;19.58;;;;;;;1.72;82.33;100948.13;5054689;28;20107;-72
2021/03/19 05:46:10;;;;;;;37.58;20.10;;;;;;;1.90;81.70;100960.91;5040245;28;20503;-71
2021/03/19 05:48:41;;;;;;;32.17;18.80;;;;;;;2.01;81.23;100958.69;5040931;28;20033;-72
2021/03/19 05:51:20;;;;;;;38.70;20.73;;;;;;;2.09;80.62;100958.13;5038998;28;20026;-75
2021/03/19 05:53:53;;;;;;;40.50;20.40;;;;;;;2.16;80.99;100967.91;5040638;28;20103;-72
2021/03/19 05:56:23;;;;;;;39.75;20.45;;;;;;;2.08;80.86;100965.91;5042240;28;20028;-71
2021/03/19 05:58:49;;;;;;;41.13;21.45;;;;;;;2.12;80.32;100963.47;5040400;28;20039;-72
2021/03/19 06:01:14;;;;;;;37.45;20.33;;;;;;;2.10;80.19;100975.53;5038818;28;20037;-71
2021/03/19 06:03:41;;;;;;;47.58;23.38;;;;;;;1.97;79.95;100975.94;5039398;28;20077;-71
2021/03/19 06:06:09;;;;;;;41.55;21.27;;;;;;;1.93;80.25;100979.25;5042175;28;20037;-71
2021/03/19 06:08:38;;;;;;;42.80;21.67;;;;;;;1.78;81.00;100971.75;5042181;28;20414;-71
2021/03/19 06:11:09;;;;;;;42.47;22.35;;;;;;;1.85;80.61;100980.69;5039093;28;20376;-72
2021/03/19 06:13:49;;;;;;;49.25;23.77;;;;;;;1.75;80.97;100982.94;5034148;28;20033;-72
2021/03/19 06:16:40;;;;;;;49.53;24.35;;;;;;;1.67;80.83;100984.38;5038642;28;20044;-72
2021/03/19 06:19:26;;;;;;;46.35;22.95;;;;;;;1.80;81.12;100990.03;5038695;28;20029;-71
2021/03/19 06:22:05;;;;;;;46.92;23.85;;;;;;;1.92;81.26;100995.69;5038268;28;20033;-71
2021/03/19 06:24:32;;;;;;;49.50;25.17;;;;;;;2.00;81.08;100995.97;5042380;28;20488;-71
2021/03/19 06:27:20;;;;;;;48.17;23.75;;;;;;;1.98;80.52;101001.13;5045075;28;20127;-71
2021/03/19 06:29:51;;;;;;;49.30;22.90;;;;;;;1.99;80.90;100997.66;5041096;28;20033;-71
2021/03/19 06:32:19;;;;;;;50.10;23.67;;;;;;;2.09;80.62;101002.38;5045639;28;20074;-72
2021/03/19 06:35:02;;;;;;;45.75;23.58;;;;;;;2.17;79.96;101002.66;5046457;28;20041;-71
2021/03/19 06:37:34;;;;;;;47.35;25.02;;;;;;;2.32;79.87;101002.31;5041959;28;20049;-72
2021/03/19 06:40:21;;;;;;;52.88;26.90;;;;;;;2.40;80.05;101000.84;5042034;28;20720;-71
2021/03/19 06:42:46;;;;;;;52.70;26.08;;;;;;;2.54;79.49;100999.63;5043278;28;20148;-71
2021/03/19 06:45:23;;;;;;;45.42;24.30;;;;;;;2.66;79.10;101009.56;5045059;28;20451;-72
2021/03/19 06:47:55;;;;;;;46.35;22.13;;;;;;;2.61;78.66;101013.72;5043265;28;20037;-71
2021/03/19 06:50:24;;;;;;;38.65;21.35;;;;;;;2.63;78.61;101012.94;5041921;28;20041;-71
2021/03/19 06:53:11;;;;;;;39.53;21.92;;;;;;;2.51;78.84;101015.13;5043465;28;20052;-71
2021/03/19 06:55:40;;;;;;;42.88;22.52;;;;;;;2.50;78.27;101013.38;5050978;28;20399;-72
2021/03/19 06:58:05;;;;;;;38.58;21.65;;;;;;;2.43;79.00;101011.38;5041574;28;20037;-72
2021/03/19 07:00:41;;;;;;;35.50;21.15;;;;;;;2.42;78.72;101012.22;5041418;28;20035;-71
2021/03/19 07:03:28;;;;;;;37.25;19.83;;;;;;;2.43;78.62;101011.38;5041618;28;20056;-71
2021/03/19 07:06:03;;;;;;;38.20;20.13;;;;;;;2.39;78.48;101025.16;5039026;28;20034;-71
2021/03/19 07:09:01;;;;;;;32.60;17.95;;;;;;;2.24;78.78;101019.41;5041606;28;20041;-72
2021/03/19 07:11:46;;;;;;;34.30;19.42;;;;;;;2.35;78.93;101021.53;5041385;28;20036;-71
2021/03/19 07:14:33;;;;;;;30.40;17.33;;;;;;;2.38;77.91;101025.97;5041612;28;20064;-71
2021/03/19 07:17:35;;;;;;;28.75;15.05;;;;;;;2.36;77.24;101019.84;5044505;28;20365;-71
2021/03/19 07:20:22;;;;;;;26.50;15.82;;;;;;;2.49;77.20;101027.25;5041251;28;20033;-72
2021/03/19 07:23:06;;;;;;;29.02;14.75;;;;;;;2.44;76.99;101031.41;5042824;28;20155;-72
2021/03/19 07:25:43;;;;;;;27.83;15.05;;;;;;;2.46;77.55;101024.50;5044305;28;20040;-71
2021/03/19 07:28:33;;;;;;;24.85;14.00;;;;;;;2.50;76.47;101029.00;5039789;28;20506;-71
2021/03/19 07:31:04;;;;;;;24.52;15.02;;;;;;;2.73;76.44;101021.09;5044173;28;20072;-72
2021/03/19 07:34:08;;;;;;;22.73;14.27;;;;;;;2.84;75.83;101027.53;5044375;28;20125;-72
2021/03/19 07:36:51;;;;;;;22.05;13.55;;;;;;;2.95;75.71;101033.09;5040635;28;20039;-72
2021/03/19 07:39:22;;;;;;;;;;;;;;;3.07;75.93;101026.56;5044514;28;20112;-72
2021/03/19 07:41:48;;;;;;;21.63;13.18;;;;;;;3.31;74.68;101022.09;5042288;28;19962;-71
2021/03/19 07:44:31;;;;;;;22.17;12.95;;;;;;;3.34;72.97;101023.06;5040672;28;20045;-71
2021/03/19 07:47:06;;;;;;;22.25;11.88;;;;;;;3.19;73.45;101027.78;5043281;28;20036;-71
2021/03/19 07:49:58;;;;;;;17.58;10.73;;;;;;;3.30;73.75;101026.38;5044234;28;20454;-71
2021/03/19 07:52:47;;;;;;;19.60;11.35;;;;;;;3.34;72.78;101027.38;5069531;23;20132;-69
2021/03/19 07:55:36;;;;;;;18.00;11.55;;;;;;;3.15;73.35;101037.25;5045516;28;20033;-69
2021/03/19 07:58:22;;;;;;;21.17;12.45;;;;;;;3.09;73.96;101037.03;5044295;28;20153;-69
2021/03/19 08:01:16;;;;;;;14.98;9.68;;;;;;;3.06;73.90;101052.59;5052011;28;20403;-69
2021/03/19 08:03:47;;;;;;;14.48;9.63;;;;;;;2.96;74.38;101054.03;5052144;28;20047;-69
2021/03/19 08:06:18;;;;;;;16.58;10.57;;;;;;;3.12;73.80;101057.09;5052117;28;20110;-68
2021/03/19 08:08:46;;;;;;;19.08;10.45;;;;;;;3.22;74.53;101053.97;5052132;28;20033;-69
2021/03/19 08:11:18;;;;;;;16.02;9.70;;;;;;;3.34;73.55;101049.13;5051969;28;20033;-69
2021/03/19 08:14:17;;;;;;;15.20;9.65;;;;;;;3.13;73.34;101059.78;5052003;28;20056;-69
2021/03/19 08:17:00;;;;;;;16.85;10.15;;;;;;;3.18;74.20;101063.41;5046156;28;20036;-69
2021/03/19 08:19:41;;;;;;;15.80;10.30;;;;;;;3.12;73.70;101080.56;5050448;28;20540;-69
2021/03/19 08:22:19;;;;;;;18.67;11.27;;;;;;;3.04;74.42;101085.56;5042526;28;20079;-69
2021/03/19 08:24:57;;;;;;;16.50;10.40;;;;;;;2.93;74.80;101087.78;5049896;28;20515;-69
2021/03/19 08:28:21;;;;;;;16.75;9.23;;;;;;;2.95;74.43;101080.91;5049915;28;20634;-69
2021/03/19 08:31:07;;;;;;;25.25;15.48;;;;;;;3.12;76.15;101089.31;5039236;28;20119;-69
2021/03/19 08:34:03;;;;;;;28.90;16.90;;;;;;;3.63;75.77;101083.09;5050085;28;20029;-69
2021/03/19 08:36:45;;;;;;;18.10;9.93;;;;;;;3.69;73.86;101081.56;5045831;28;20025;-69
2021/03/19 08:39:33;;;;;;;14.35;8.80;;;;;;;3.54;72.09;101090.63;5056256;28;20032;-69
2021/03/19 08:42:16;;;;;;;13.63;7.50;;;;;;;3.21;73.82;101091.31;5068809;28;20044;-69
2021/03/19 08:44:42;;;;;;;11.13;6.50;;;;;;;3.17;72.75;101086.84;5061061;28;20049;-69
2021/03/19 08:47:25;;;;;;;11.15;6.55;;;;;;;2.88;74.39;101094.56;5049712;28;20392;-69
2021/03/19 08:49:54;;;;;;;8.27;5.03;;;;;;;2.99;73.02;101101.06;5051313;28;20033;-69
2021/03/19 08:52:35;;;;;;;9.45;5.85;;;;;;;3.00;73.81;101099.34;5051259;28;20033;-69
2021/03/19 08:55:21;;;;;;;8.65;5.25;;;;;;;3.17;73.53;101106.00;5050990;28;20040;-68
2021/03/19 08:57:52;;;;;;;9.82;5.43;;;;;;;3.18;73.78;101110.38;5051157;28;20041;-68
2021/03/19 09:00:20;;;;;;;8.30;4.88;;;;;;;2.95;73.22;101107.00;5051149;28;20048;-68
2021/03/19 09:02:57;;;;;;;7.05;4.40;;;;;;;2.61;73.90;101112.75;5050900;28;20041;-68
2021/03/19 09:05:29;;;;;;;8.63;4.45;;;;;;;2.70;74.19;101114.78;5050937;28;20043;-68
2021/03/19 09:08:18;;;;;;;8.45;4.32;;;;;;;2.78;73.83;101122.06;5051062;28;20447;-68
2021/03/19 09:10:43;;;;;;;5.57;3.17;;;;;;;2.98;73.06;101127.06;5050963;28;20033;-68
2021/03/19 09:13:15;;;;;;;5.80;2.78;;;;;;;3.52;72.48;101121.91;5051106;28;20098;-68
2021/03/19 09:15:44;;;;;;;7.15;3.05;;;;;;;4.15;71.35;101126.44;5050808;28;20033;-68
2021/03/19 09:18:37;;;;;;;6.78;3.38;;;;;;;4.68;69.74;101124.44;5051053;28;20021;-67
2021/03/19 09:21:27;;;;;;;6.70;4.25;;;;;;;4.35;66.73;101121.81;5042849;28;20052;-68
2021/03/19 09:24:19;;;;;;;7.03;4.25;;;;;;;3.68;67.97;101120.66;5051031;28;20108;-68
2021/03/19 09:27:12;;;;;;;7.43;3.88;;;;;;;3.61;67.51;101116.97;5050707;28;20701;-68
2021/03/19 09:29:39;;;;;;;6.32;3.60;;;;;;;3.75;67.58;101125.25;5051005;28;20056;-68
2021/03/19 09:32:36;;;;;;;6.72;4.22;;;;;;;4.10;66.35;101121.06;5050901;28;20056;-68
2021/03/19 09:35:14;;;;;;;8.10;3.90;;;;;;;4.27;65.76;101118.97;5042512;28;20091;-68
2021/03/19 09:37:39;;;;;;;6.57;2.92;;;;;;;4.43;64.78;101122.00;5051024;28;20032;-68
2021/03/19 09:40:07;;;;;;;5.38;3.20;;;;;;;4.68;64.39;101124.44;5050860;28;20037;-68
2021/03/19 09:42:32;;;;;;;6.57;3.70;;;;;;;4.89;63.45;101131.97;5050756;28;20127;-68
2021/03/19 09:44:58;;;;;;;7.43;4.45;;;;;;;4.98;62.19;101129.63;5050643;28;20063;-69
2021/03/19 09:47:32;;;;;;;7.38;4.45;;;;;;;5.33;60.30;101129.63;5043483;28;20041;-68
2021/03/19 09:50:22;;;;;;;7.28;4.28;;;;;;;5.36;58.47;101126.19;5050233;28;20067;-68
2021/03/19 09:53:13;;;;;;;8.32;5.07;;;;;;;5.46;60.78;101138.69;5050486;28;20033;-68
2021/03/19 09:55:40;;;;;;;7.05;4.18;;;;;;;5.25;57.07;101129.44;5023830;28;20049;-68
2021/03/19 09:58:17;;;;;;;6.20;3.50;;;;;;;5.26;54.90;101133.81;5054616;28;20120;-68
2021/03/19 10:00:52;;;;;;;5.97;3.55;;;;;;;5.23;55.92;101132.84;5054441;28;20044;-68
2021/03/19 10:03:18;;;;;;;5.20;2.67;;;;;;;5.28;54.35;101132.13;5054643;28;20053;-68
2021/03/19 10:05:46;;;;;;;5.85;3.17;;;;;;;5.56;55.59;101121.47;5054313;28;20529;-68
2021/03/19 10:08:27;;;;;;;6.53;3.40;;;;;;;5.86;54.67;101129.13;5054394;28;20037;-68
2021/03/19 10:11:04;;;;;;;6.07;3.00;;;;;;;6.20;53.80;101124.66;5054422;28;20024;-68
2021/03/19 10:13:30;;;;;;;5.20;3.00;;;;;;;6.15;54.57;101127.16;5054389;28;20068;-68
2021/03/19 10:15:56;;;;;;;5.07;3.30;;;;;;;6.00;54.26;101121.59;5054016;28;20061;-68
2021/03/19 10:18:36;;;;;;;5.20;3.00;;;;;;;5.29;54.31;101146.09;5054281;28;20404;-68
2021/03/19 10:21:08;;;;;;;9.48;4.28;;;;;;;4.97;56.83;101137.44;5053921;28;20048;-68
2021/03/19 10:23:35;;;;;;;;;;;;;;;4.92;55.54;101133.81;5054666;28;20041;-68
2021/03/19 10:26:23;;;;;;;9.35;5.43;;;;;;;5.33;55.49;101128.75;5053765;28;19919;-68
2021/03/19 10:29:11;;;;;;;6.13;3.45;;;;;;;5.80;53.75;101129.88;5053875;28;20033;-68
2021/03/19 10:31:43;;;;;;;5.40;3.15;;;;;;;6.12;52.59;101117.50;5053839;28;20132;-68
2021/03/19 10:34:33;;;;;;;9.98;3.65;;;;;;;6.43;49.48;101118.16;5053864;28;20484;-68
2021/03/19 10:37:04;;;;;;;6.28;3.17;;;;;;;6.73;50.18;101120.50;5053578;28;20503;-68
2021/03/19 10:39:33;;;;;;;4.70;2.78;;;;;;;7.11;49.85;101124.66;5053705;28;20036;-67
2021/03/19 10:42:19;;;;;;;6.82;3.53;;;;;;;7.48;48.25;101120.91;5053971;28;20033;-68
2021/03/19 10:44:55;;;;;;;5.32;2.88;;;;;;;7.66;48.83;101115.06;5059510;28;20028;-68
2021/03/19 10:47:29;;;;;;;5.97;3.33;;;;;;;7.55;46.38;101127.16;5059147;28;20052;-68
2021/03/19 10:49:59;;;;;;;4.65;2.80;;;;;;;7.31;47.92;101128.53;5063076;28;20036;-68
2021/03/19 10:52:33;;;;;;;6.50;3.22;;;;;;;6.87;48.27;101139.13;5066097;28;20033;-68
2021/03/19 10:55:02;;;;;;;6.80;3.47;;;;;;;6.31;49.29;101134.53;5053563;28;20071;-69
2021/03/19 10:57:36;;;;;;;6.45;3.60;;;;;;;6.00;51.07;101140.84;5063743;28;20032;-69
2021/03/19 11:00:33;;;;;;;4.22;2.65;;;;;;;5.63;49.79;101141.69;5053518;28;20116;-68
2021/03/19 11:03:01;;;;;;;4.55;2.35;;;;;;;5.45;49.51;101137.78;5070801;28;20033;-68
2021/03/19 11:05:27;;;;;;;4.95;2.67;;;;;;;5.32;50.59;101142.66;5057860;28;20123;-68
2021/03/19 11:07:53;;;;;;;4.88;2.60;;;;;;;5.44;51.59;101151.72;5050784;28;20161;-68
2021/03/19 11:10:23;;;;;;;5.82;2.80;;;;;;;5.44;51.09;101146.47;5047330;28;20036;-68
2021/03/19 11:13:29;;;;;;;5.63;2.80;;;;;;;5.38;49.73;101141.09;5052962;28;20025;-68
2021/03/19 11:15:57;;;;;;;6.20;2.95;;;;;;;5.22;51.50;101141.56;5052775;28;20525;-68
2021/03/19 11:18:36;;;;;;;4.18;2.50;;;;;;;5.25;51.69;101141.66;5049698;28;20039;-68
2021/03/19 11:21:11;;;;;;;6.85;3.22;;;;;;;5.46;52.01;101141.28;5044574;28;20052;-68
2021/03/19 11:23:45;;;;;;;5.68;3.15;;;;;;;5.59;50.81;101143.34;5052862;28;20041;-68
2021/03/19 11:26:22;;;;;;;5.15;2.92;;;;;;;5.25;52.00;101145.13;5045735;28;20033;-68
2021/03/19 11:28:49;;;;;;;5.63;2.83;;;;;;;5.26;51.43;101152.13;5050824;28;20033;-68
2021/03/19 11:31:27;;;;;;;5.50;3.28;;;;;;;4.89;53.62;101149.41;5038665;28;20483;-68
2021/03/19 11:33:56;;;;;;;5.38;2.90;;;;;;;4.94;52.40;101146.06;5045921;28;20461;-68
2021/03/19 11:36:23;;;;;;;5.05;3.03;;;;;;;5.00;53.45;101153.19;5043285;28;20518;-68
2021/03/19 11:38:51;;;;;;;6.47;3.38;;;;;;;5.41;53.53;101151.63;5042624;28;20033;-68
2021/03/19 11:41:35;;;;;;;6.18;3.60;;;;;;;5.32;53.06;101151.44;5046262;28;20067;-68
2021/03/19 11:44:01;;;;;;;5.60;3.15;;;;;;;5.18;54.37;101147.56;5041383;28;20037;-68
2021/03/19 11:46:28;;;;;;;5.65;3.08;;;;;;;4.97;54.44;101145.28;5052009;28;20037;-68
2021/03/19 11:48:53;;;;;;;6.45;3.13;;;;;;;4.79;55.45;101154.41;5052328;28;20041;-68
2021/03/19 11:51:30;;;;;;;5.68;3.63;;;;;;;4.79;56.25;101156.13;5052218;28;20021;-68
2021/03/19 11:53:59;;;;;;;6.40;3.47;;;;;;;4.59;57.21;101156.47;5052391;28;20063;-68
2021/03/19 11:56:28;;;;;;;6.97;3.50;;;;;;;4.45;57.09;101162.13;5051413;28;20041;-68